Time;durP1;ratioP1;P1;durP2;ratioP2;P2;SDS_P1;SDS_P2;PMS_P1;PMS_P2;Temp;Humidity;BMP_temperature;BMP_pressure;BME280_temperature;BME280_humidity;BME280_pressure;Samples;Min_cycle;Max_cycle;Signal;HPM_P1;HPM_P2
2023/11/07 00:01:50;;;;;;;0.98;0.63;;;22.30;55.40;;;;;;5039104;28;20417;-71
2023/11/07 00:04:16;;;;;;;1.33;0.70;;;22.30;55.40;;;;;;5022573;28;20025;-71
2023/11/07 00:06:42;;;;;;;0.95;0.60;;;22.20;55.40;;;;;;5016538;28;20466;-71
2023/11/07 00:09:08;;;;;;;1.23;0.85;;;22.20;55.40;;;;;;5019988;28;20466;-70
2023/11/07 00:11:34;;;;;;;0.70;0.60;;;22.20;55.40;;;;;;5022496;28;20060;-70
2023/11/07 00:14:00;;;;;;;1.48;0.60;;;22.20;56.00;;;;;;5004039;28;20084;-71
2023/11/07 00:16:27;;;;;;;0.80;0.60;;;22.20;55.50;;;;;;5021972;28;20022;-70
2023/11/07 00:18:53;;;;;;;1.10;0.60;;;22.20;55.50;;;;;;5023525;28;20539;-71
2023/11/07 00:21:19;;;;;;;1.83;0.77;;;22.20;55.50;;;;;;5021389;28;20025;-70
2023/11/07 00:23:44;;;;;;;1.10;0.63;;;22.20;55.50;;;;;;5017739;28;20138;-70
2023/11/07 00:26:10;;;;;;;0.68;0.57;;;22.10;55.50;;;;;;5020598;28;20072;-70
2023/11/07 00:28:38;;;;;;;0.75;0.60;;;22.10;55.50;;;;;;5020193;28;20100;-70
2023/11/07 00:31:04;;;;;;;0.73;0.60;;;22.10;55.50;;;;;;5022350;28;20124;-70
2023/11/07 00:33:30;;;;;;;1.23;0.70;;;22.10;55.50;;;;;;5014203;28;20109;-70
2023/11/07 00:35:55;;;;;;;0.85;0.65;;;22.10;55.60;;;;;;5001100;28;20484;-70
2023/11/07 00:38:21;;;;;;;0.80;0.60;;;22.10;55.50;;;;;;5000510;28;20039;-70
2023/11/07 00:40:48;;;;;;;1.20;0.70;;;22.10;55.60;;;;;;5017856;28;20057;-70
2023/11/07 00:43:14;;;;;;;0.95;0.60;;;22.10;55.60;;;;;;5000474;28;20019;-70
2023/11/07 00:45:39;;;;;;;0.82;0.70;;;22.10;55.60;;;;;;5001438;28;20037;-70
2023/11/07 00:48:05;;;;;;;0.80;0.60;;;22.00;55.60;;;;;;5018505;28;20532;-70
2023/11/07 00:50:31;;;;;;;0.98;0.63;;;22.00;55.60;;;;;;5020601;28;20040;-70
2023/11/07 00:52:56;;;;;;;1.38;0.82;;;22.00;55.60;;;;;;5018274;28;20239;-70
2023/11/07 00:55:22;;;;;;;1.35;0.60;;;22.00;55.60;;;;;;5021510;28;20026;-70
2023/11/07 00:57:47;;;;;;;1.17;0.68;;;22.00;55.60;;;;;;5020891;28;20025;-70
2023/11/07 01:00:13;;;;;;;1.15;0.70;;;22.00;55.70;;;;;;5019274;28;20022;-70
2023/11/07 01:02:39;;;;;;;1.00;0.70;;;22.00;55.70;;;;;;5021390;28;20160;-70
2023/11/07 01:05:05;;;;;;;0.98;0.60;;;22.00;55.70;;;;;;5020237;28;20136;-71
2023/11/07 01:07:31;;;;;;;1.00;0.68;;;22.00;55.70;;;;;;5018374;28;20466;-71
2023/11/07 01:09:56;;;;;;;0.85;0.60;;;22.00;55.70;;;;;;5019655;28;20095;-70
2023/11/07 01:12:22;;;;;;;1.23;0.70;;;21.90;55.60;;;;;;5020556;28;20478;-70
2023/11/07 01:14:48;;;;;;;1.17;0.70;;;21.90;55.70;;;;;;5020901;28;20482;-70
2023/11/07 01:17:13;;;;;;;1.35;0.77;;;21.90;55.70;;;;;;5018374;28;20032;-70
2023/11/07 01:19:39;;;;;;;1.10;0.73;;;21.90;55.70;;;;;;5020879;28;20146;-71
2023/11/07 01:22:05;;;;;;;0.68;0.50;;;21.90;55.70;;;;;;5016996;28;20394;-70
2023/11/07 01:24:31;;;;;;;1.27;0.60;;;21.90;55.70;;;;;;5019610;28;20044;-70
2023/11/07 01:26:56;;;;;;;0.90;0.70;;;21.90;55.80;;;;;;5035741;28;20227;-70
2023/11/07 01:29:22;;;;;;;1.25;0.70;;;21.90;55.80;;;;;;5019729;28;20018;-70
2023/11/07 01:31:48;;;;;;;0.60;0.60;;;21.80;55.70;;;;;;5019995;28;20025;-71
2023/11/07 01:34:14;;;;;;;0.98;0.60;;;21.80;55.70;;;;;;5017735;28;20513;-70
2023/11/07 01:36:40;;;;;;;0.95;0.70;;;21.80;55.80;;;;;;5019398;28;20126;-71
2023/11/07 01:39:05;;;;;;;0.73;0.57;;;21.80;55.80;;;;;;5018783;28;20052;-71
2023/11/07 01:41:33;;;;;;;0.50;0.50;;;21.80;55.80;;;;;;5020736;28;20140;-71
2023/11/07 01:43:59;;;;;;;0.77;0.60;;;21.80;55.80;;;;;;5019410;28;20505;-70
2023/11/07 01:46:26;;;;;;;0.50;0.50;;;21.80;55.80;;;;;;5020025;28;20033;-70
2023/11/07 01:48:53;;;;;;;0.95;0.75;;;21.80;55.80;;;;;;5020271;28;20040;-70
2023/11/07 01:51:20;;;;;;;1.30;0.70;;;21.80;55.80;;;;;;5019422;28;20025;-70
2023/11/07 01:53:47;;;;;;;0.70;0.50;;;21.80;56.40;;;;;;5017128;28;20492;-70
2023/11/07 01:56:14;;;;;;;0.80;0.60;;;21.70;55.80;;;;;;5000623;28;20030;-70
2023/11/07 01:58:40;;;;;;;1.30;0.70;;;21.70;55.90;;;;;;5016226;28;20124;-70
2023/11/07 02:01:06;;;;;;;1.00;0.70;;;21.70;55.80;;;;;;5019840;28;20022;-70
2023/11/07 02:03:32;;;;;;;0.93;0.60;;;21.70;55.80;;;;;;5016883;28;20454;-70
2023/11/07 02:05:58;;;;;;;1.13;0.60;;;21.70;55.90;;;;;;5019069;28;20104;-70
2023/11/07 02:08:25;;;;;;;0.52;0.52;;;21.70;55.90;;;;;;5033689;28;20026;-70
2023/11/07 02:10:51;;;;;;;0.82;0.50;;;21.70;55.90;;;;;;5020684;28;20527;-70
2023/11/07 02:13:16;;;;;;;0.65;0.50;;;21.70;55.90;;;;;;5031835;28;20112;-70
2023/11/07 02:15:42;;;;;;;1.13;0.60;;;21.70;55.90;;;;;;5018936;28;20094;-69
2023/11/07 02:18:08;;;;;;;0.90;0.57;;;21.70;55.90;;;;;;5019166;28;20048;-70
2023/11/07 02:20:38;;;;;;;1.10;0.60;;;21.70;55.90;;;;;;5018818;28;20037;-69
2023/11/07 02:23:27;;;;;;;0.75;0.60;;;21.70;55.90;;;;;;5017255;28;20100;-70
2023/11/07 02:25:53;;;;;;;0.52;0.50;;;21.60;55.90;;;;;;5019029;28;20059;-69
2023/11/07 02:28:19;;;;;;;0.80;0.60;;;21.60;55.90;;;;;;5017243;28;20033;-69
2023/11/07 02:30:45;;;;;;;0.80;0.60;;;21.60;55.90;;;;;;5019115;28;20434;-70
2023/11/07 02:33:11;;;;;;;0.60;0.60;;;21.60;55.90;;;;;;5019963;28;20022;-70
2023/11/07 02:35:38;;;;;;;1.17;0.60;;;21.60;55.90;;;;;;5018964;28;20076;-70
2023/11/07 02:38:03;;;;;;;0.63;0.60;;;21.60;55.90;;;;;;5017699;28;20339;-70
2023/11/07 02:40:29;;;;;;;0.52;0.50;;;21.60;56.00;;;;;;5017124;28;20075;-70
2023/11/07 02:42:55;;;;;;;0.57;0.50;;;21.60;56.00;;;;;;5034001;28;20030;-67
2023/11/07 02:45:21;;;;;;;0.88;0.60;;;21.60;56.00;;;;;;5018851;28;20026;-66
2023/11/07 02:47:47;;;;;;;0.70;0.50;;;21.50;56.00;;;;;;5018600;28;20643;-67
2023/11/07 02:50:12;;;;;;;0.93;0.60;;;21.60;56.10;;;;;;5017920;28;20029;-66
2023/11/07 02:52:43;;;;;;;0.63;0.60;;;21.60;56.00;;;;;;5019852;28;20026;-70
2023/11/07 02:55:09;;;;;;;0.65;0.50;;;21.50;56.00;;;;;;5018620;28;20026;-67
2023/11/07 02:57:35;;;;;;;0.50;0.50;;;21.50;56.00;;;;;;5017516;28;20028;-67
2023/11/07 03:00:01;;;;;;;0.70;0.50;;;21.50;56.00;;;;;;5018624;28;20469;-67
2023/11/07 03:02:27;;;;;;;0.95;0.60;;;21.50;56.00;;;;;;5016135;28;20038;-67
2023/11/07 03:04:56;;;;;;;0.77;0.57;;;21.50;56.00;;;;;;5018946;28;20112;-67
2023/11/07 03:07:22;;;;;;;0.77;0.55;;;21.50;56.00;;;;;;5018222;28;20033;-67
2023/11/07 03:09:47;;;;;;;0.80;0.60;;;21.50;56.10;;;;;;5015813;28;20079;-67
2023/11/07 03:12:14;;;;;;;0.65;0.60;;;21.50;56.10;;;;;;5019374;28;20029;-67
2023/11/07 03:14:43;;;;;;;0.60;0.60;;;21.50;56.00;;;;;;5019628;28;20021;-67
2023/11/07 03:17:08;;;;;;;0.65;0.50;;;21.50;56.10;;;;;;5018800;28;20052;-67
2023/11/07 03:19:34;;;;;;;0.40;0.40;;;21.50;56.00;;;;;;5019583;28;20481;-68
2023/11/07 03:22:00;;;;;;;0.50;0.50;;;21.40;56.10;;;;;;5018759;28;20045;-67
2023/11/07 03:24:25;;;;;;;0.90;0.55;;;21.50;56.10;;;;;;5016397;28;20073;-67
2023/11/07 03:26:51;;;;;;;0.90;0.60;;;21.40;56.10;;;;;;5017557;28;20474;-67
2023/11/07 03:29:16;;;;;;;0.50;0.50;;;21.40;56.10;;;;;;5019364;28;20105;-67
2023/11/07 03:31:43;;;;;;;0.50;0.50;;;21.40;56.10;;;;;;5020172;28;20041;-67
2023/11/07 03:34:09;;;;;;;0.70;0.57;;;21.40;56.10;;;;;;5018286;28;20091;-68
2023/11/07 03:36:35;;;;;;;0.45;0.45;;;21.40;56.10;;;;;;5016216;28;20026;-67
2023/11/07 03:39:01;;;;;;;0.77;0.60;;;21.40;56.10;;;;;;4996247;28;20538;-67
2023/11/07 03:41:27;;;;;;;0.52;0.40;;;21.40;56.10;;;;;;5023172;28;20057;-67
2023/11/07 03:43:53;;;;;;;0.55;0.55;;;21.40;56.10;;;;;;5019659;28;20104;-69
2023/11/07 03:46:19;;;;;;;0.55;0.40;;;21.40;56.10;;;;;;5020411;28;20344;-67
2023/11/07 03:48:45;;;;;;;0.40;0.40;;;21.40;56.10;;;;;;5021858;28;20418;-67
2023/11/07 03:51:10;;;;;;;0.70;0.57;;;21.30;56.10;;;;;;5021004;28;20105;-67
2023/11/07 03:53:36;;;;;;;0.52;0.52;;;21.40;56.10;;;;;;5018919;28;20030;-70
2023/11/07 03:56:02;;;;;;;1.73;0.80;;;21.40;56.20;;;;;;5019982;28;20030;-70
2023/11/07 03:58:27;;;;;;;1.25;0.63;;;21.30;56.20;;;;;;5035873;28;20566;-70
2023/11/07 04:00:53;;;;;;;0.88;0.60;;;21.30;56.20;;;;;;5020746;28;20034;-70
2023/11/07 04:03:19;;;;;;;0.57;0.57;;;21.30;56.20;;;;;;5019779;28;20040;-70
2023/11/07 04:05:45;;;;;;;0.50;0.50;;;21.30;56.20;;;;;;5020945;28;20421;-70
2023/11/07 04:08:10;;;;;;;0.82;0.57;;;21.30;56.20;;;;;;5021507;28;20034;-70
2023/11/07 04:10:36;;;;;;;0.70;0.60;;;21.30;56.20;;;;;;5019543;28;20389;-70
2023/11/07 04:13:05;;;;;;;0.65;0.50;;;21.30;56.20;;;;;;5021601;28;20398;-69
2023/11/07 04:15:31;;;;;;;0.60;0.60;;;21.30;56.20;;;;;;5021746;28;20057;-70
2023/11/07 04:17:57;;;;;;;0.90;0.50;;;21.30;56.20;;;;;;5021450;28;20044;-70
2023/11/07 04:20:24;;;;;;;0.70;0.50;;;21.30;56.20;;;;;;5036089;28;20025;-69
2023/11/07 04:22:50;;;;;;;0.80;0.65;;;21.30;56.20;;;;;;5021007;28;20048;-70
2023/11/07 04:25:19;;;;;;;0.70;0.50;;;21.30;56.30;;;;;;5017523;28;20026;-70
2023/11/07 04:27:46;;;;;;;1.13;0.68;;;21.20;56.20;;;;;;5020758;28;20113;-69
2023/11/07 04:30:13;;;;;;;0.70;0.40;;;21.30;56.30;;;;;;5020971;28;20022;-70
2023/11/07 04:32:39;;;;;;;0.98;0.60;;;21.30;56.30;;;;;;5020663;28;20507;-70
2023/11/07 04:35:06;;;;;;;1.27;0.60;;;21.30;56.30;;;;;;5021293;28;20025;-70
2023/11/07 04:37:32;;;;;;;0.60;0.50;;;21.20;56.20;;;;;;5020887;28;20501;-70
2023/11/07 04:39:58;;;;;;;0.95;0.60;;;21.20;56.30;;;;;;5018777;28;20473;-70
2023/11/07 04:42:24;;;;;;;0.65;0.50;;;21.20;56.30;;;;;;5019016;28;20032;-69
2023/11/07 04:44:50;;;;;;;0.70;0.50;;;21.20;56.30;;;;;;5019334;28;20041;-70
2023/11/07 04:47:17;;;;;;;1.08;0.60;;;21.20;56.30;;;;;;5021069;28;20026;-70
2023/11/07 04:49:43;;;;;;;0.50;0.50;;;21.20;56.30;;;;;;5018808;28;20459;-70
2023/11/07 04:52:09;;;;;;;0.68;0.52;;;21.20;56.30;;;;;;5020704;28;20032;-70
2023/11/07 04:54:35;;;;;;;0.77;0.60;;;21.20;56.30;;;;;;5018654;28;20136;-70
2023/11/07 04:57:00;;;;;;;1.15;0.70;;;21.20;56.30;;;;;;5001020;28;20521;-70
2023/11/07 04:59:26;;;;;;;0.40;0.40;;;21.20;56.30;;;;;;5021378;28;20098;-70
2023/11/07 05:01:55;;;;;;;1.50;0.80;;;21.20;56.40;;;;;;5020395;28;20068;-70
2023/11/07 05:04:20;;;;;;;0.40;0.40;;;21.20;56.40;;;;;;5021019;28;20088;-70
2023/11/07 05:06:46;;;;;;;0.60;0.60;;;21.20;56.40;;;;;;5019430;28;20033;-70
2023/11/07 05:09:12;;;;;;;0.50;0.50;;;21.20;56.40;;;;;;5015601;28;20044;-69
2023/11/07 05:11:41;;;;;;;1.05;0.60;;;21.10;56.30;;;;;;5020753;28;20136;-70
2023/11/07 05:14:08;;;;;;;0.73;0.50;;;21.20;56.40;;;;;;5021354;28;20116;-71
2023/11/07 05:16:36;;;;;;;0.82;0.50;;;21.10;56.40;;;;;;5035041;28;20095;-71
2023/11/07 05:19:02;;;;;;;1.00;0.60;;;21.10;56.40;;;;;;5019915;28;20021;-70
2023/11/07 05:21:28;;;;;;;0.55;0.50;;;21.10;56.40;;;;;;5020930;28;20101;-71
2023/11/07 05:23:53;;;;;;;0.77;0.45;;;21.10;56.40;;;;;;5014505;28;20033;-70
2023/11/07 05:26:19;;;;;;;0.60;0.50;;;21.10;56.50;;;;;;5019582;28;20908;-71
2023/11/07 05:28:44;;;;;;;0.50;0.50;;;21.10;56.50;;;;;;5020304;28;20027;-70
2023/11/07 05:31:10;;;;;;;0.65;0.63;;;21.10;56.50;;;;;;5020622;28;20206;-70
2023/11/07 05:33:36;;;;;;;0.68;0.50;;;21.10;56.50;;;;;;5020700;28;20021;-71
2023/11/07 05:36:02;;;;;;;1.08;0.60;;;21.10;56.50;;;;;;5018728;28;20033;-71
2023/11/07 05:38:28;;;;;;;1.25;0.60;;;21.10;56.50;;;;;;5018862;28;20500;-70
2023/11/07 05:40:54;;;;;;;0.68;0.60;;;21.10;56.50;;;;;;5017063;28;20116;-71
2023/11/07 05:43:19;;;;;;;0.50;0.50;;;21.10;56.50;;;;;;5021582;28;20101;-71
2023/11/07 05:45:45;;;;;;;0.98;0.63;;;21.10;56.50;;;;;;5017726;28;20033;-69
2023/11/07 05:48:11;;;;;;;1.05;0.50;;;21.10;56.60;;;;;;5018651;28;20048;-69
2023/11/07 05:50:37;;;;;;;0.60;0.50;;;21.10;56.50;;;;;;5020157;28;20029;-69
2023/11/07 05:53:03;;;;;;;0.52;0.50;;;21.10;57.10;;;;;;5018665;28;20037;-69
2023/11/07 05:55:29;;;;;;;0.77;0.50;;;21.10;56.60;;;;;;5015549;28;20899;-69
2023/11/07 05:57:54;;;;;;;0.95;0.50;;;21.00;56.50;;;;;;5018842;28;20105;-69
2023/11/07 06:00:20;;;;;;;1.15;0.80;;;21.00;56.60;;;;;;5017603;28;20026;-69
2023/11/07 06:02:46;;;;;;;0.68;0.57;;;21.00;56.60;;;;;;5018998;28;20069;-70
2023/11/07 06:05:12;;;;;;;0.77;0.60;;;21.00;56.60;;;;;;5019139;28;20046;-69
2023/11/07 06:07:38;;;;;;;0.77;0.60;;;21.00;56.60;;;;;;5018250;28;20619;-69
2023/11/07 06:10:04;;;;;;;0.75;0.52;;;21.00;56.60;;;;;;5017953;28;20338;-69
2023/11/07 06:12:30;;;;;;;0.90;0.63;;;21.00;56.60;;;;;;5019469;28;20537;-69
2023/11/07 06:14:55;;;;;;;1.45;0.60;;;21.00;56.70;;;;;;5017102;28;20029;-69
2023/11/07 06:17:21;;;;;;;1.55;0.50;;;21.00;56.70;;;;;;5018931;28;20155;-69
2023/11/07 06:19:47;;;;;;;0.98;0.57;;;21.00;56.70;;;;;;5018800;28;20152;-70
2023/11/07 06:22:16;;;;;;;1.23;0.70;;;21.00;56.70;;;;;;5020122;28;20029;-69
2023/11/07 06:24:43;;;;;;;1.02;0.70;;;21.00;56.70;;;;;;5018453;28;20025;-70
2023/11/07 06:27:08;;;;;;;1.13;0.60;;;21.00;56.70;;;;;;5019901;28;20030;-71
2023/11/07 06:29:34;;;;;;;1.27;0.60;;;21.00;56.70;;;;;;5019650;28;20501;-68
2023/11/07 06:32:00;;;;;;;1.25;0.70;;;21.00;56.80;;;;;;5018746;28;20096;-69
2023/11/07 06:34:26;;;;;;;1.40;0.60;;;21.00;56.80;;;;;;5019460;28;20036;-68
2023/11/07 06:36:52;;;;;;;1.10;0.60;;;21.00;56.80;;;;;;5018395;28;20030;-68
2023/11/07 06:39:18;;;;;;;1.25;0.60;;;21.00;56.80;;;;;;5018136;28;20030;-68
2023/11/07 06:41:44;;;;;;;1.20;0.70;;;21.00;56.80;;;;;;5017232;28;20504;-68
2023/11/07 06:44:11;;;;;;;1.23;0.70;;;21.00;57.10;;;;;;5018762;28;20061;-69
2023/11/07 06:46:41;;;;;;;2.00;0.82;;;20.90;56.80;;;;;;5018104;28;20509;-69
2023/11/07 06:49:08;;;;;;;0.82;0.60;;;21.00;56.80;;;;;;5016708;28;20018;-68
2023/11/07 06:51:34;;;;;;;0.98;0.80;;;20.90;56.80;;;;;;5019514;28;20386;-68
2023/11/07 06:54:00;;;;;;;1.48;0.75;;;20.90;56.80;;;;;;5020583;28;20030;-69
2023/11/07 06:56:26;;;;;;;1.88;0.70;;;20.90;57.30;;;;;;5016759;28;20481;-69
2023/11/07 06:58:51;;;;;;;2.58;1.00;;;20.90;56.80;;;;;;5018486;28;20105;-69
2023/11/07 07:01:19;;;;;;;2.50;1.05;;;20.90;56.80;;;;;;5016072;28;20061;-69
2023/11/07 07:03:45;;;;;;;1.35;0.82;;;20.90;56.80;;;;;;5018661;28;20033;-70
2023/11/07 07:06:12;;;;;;;3.50;0.90;;;20.90;56.80;;;;;;5019031;28;20037;-69
2023/11/07 07:08:37;;;;;;;2.30;1.00;;;20.90;56.80;;;;;;5016384;28;20525;-69
2023/11/07 07:11:05;;;;;;;2.28;1.00;;;20.90;56.90;;;;;;4997221;28;20116;-70
2023/11/07 07:13:31;;;;;;;2.22;0.90;;;20.90;56.80;;;;;;5017144;28;20030;-69
2023/11/07 07:15:59;;;;;;;2.53;1.10;;;20.90;56.80;;;;;;5022266;28;20422;-69
2023/11/07 07:18:27;;;;;;;2.22;1.00;;;20.90;56.80;;;;;;5023491;28;20022;-69
2023/11/07 07:20:55;;;;;;;2.50;0.90;;;20.90;56.90;;;;;;5021984;28;20112;-69
2023/11/07 07:23:24;;;;;;;3.70;1.00;;;20.90;56.90;;;;;;5018528;28;20477;-69
2023/11/07 07:25:53;;;;;;;2.00;0.82;;;20.90;56.90;;;;;;5018985;28;20029;-67
2023/11/07 07:28:20;;;;;;;3.00;0.90;;;20.90;56.90;;;;;;5020978;28;20072;-66
2023/11/07 07:30:47;;;;;;;1.90;0.80;;;20.90;56.90;;;;;;5021527;28;20046;-67
2023/11/07 07:33:15;;;;;;;2.42;1.00;;;20.80;56.90;;;;;;5020081;28;20097;-67
2023/11/07 07:35:40;;;;;;;1.63;0.90;;;20.80;56.90;;;;;;5022994;28;20503;-70
2023/11/07 07:38:09;;;;;;;2.33;1.00;;;20.90;56.90;;;;;;5020049;28;20120;-69
2023/11/07 07:40:34;;;;;;;3.70;0.95;;;20.90;56.90;;;;;;5020559;28;20374;-69
2023/11/07 07:43:08;;;;;;;3.53;1.10;;;20.90;56.90;;;;;;5021018;28;20022;-69
2023/11/07 07:45:35;;;;;;;2.38;0.90;;;20.80;56.90;;;;;;5003360;28;20030;-69
2023/11/07 07:48:04;;;;;;;2.67;1.10;;;20.80;57.40;;;;;;5002824;28;20033;-69
2023/11/07 07:50:30;;;;;;;1.55;0.90;;;20.80;56.90;;;;;;5021116;28;20022;-69
2023/11/07 07:52:58;;;;;;;2.65;1.10;;;20.80;56.90;;;;;;5022096;28;20034;-69
2023/11/07 07:55:27;;;;;;;3.47;0.90;;;20.80;56.90;;;;;;5019522;28;20017;-69
2023/11/07 07:57:53;;;;;;;;;;;20.80;56.90;;;;;;5036435;28;20112;-69
2023/11/07 08:00:24;;;;;;;3.13;1.20;;;20.80;56.90;;;;;;5021705;28;19996;-69
2023/11/07 08:02:51;;;;;;;3.10;1.00;;;20.80;56.90;;;;;;5022808;28;20054;-70
2023/11/07 08:05:18;;;;;;;2.42;1.02;;;20.80;56.90;;;;;;5021057;28;20049;-66
2023/11/07 08:07:44;;;;;;;2.78;0.88;;;20.80;56.90;;;;;;5022663;28;20159;-67
2023/11/07 08:10:16;;;;;;;1.65;1.00;;;20.80;56.90;;;;;;5020007;28;20104;-67
2023/11/07 08:12:43;;;;;;;3.03;1.30;;;20.80;56.90;;;;;;5021220;28;20025;-66
2023/11/07 08:15:09;;;;;;;3.25;1.30;;;20.80;56.90;;;;;;5021852;28;20024;-68
2023/11/07 08:17:35;;;;;;;2.70;1.10;;;20.80;56.90;;;;;;5020010;28;20501;-66
2023/11/07 08:20:04;;;;;;;1.73;1.00;;;20.80;56.90;;;;;;5018018;28;20026;-66
2023/11/07 08:22:30;;;;;;;2.47;1.20;;;20.80;56.90;;;;;;5019240;28;20026;-66
2023/11/07 08:24:55;;;;;;;2.72;1.25;;;20.80;57.00;;;;;;5021754;28;20033;-67
2023/11/07 08:27:22;;;;;;;2.53;1.00;;;20.80;56.90;;;;;;5019090;28;20040;-66
2023/11/07 08:29:48;;;;;;;2.83;1.13;;;20.70;56.90;;;;;;5020449;28;20030;-66
2023/11/07 08:32:14;;;;;;;2.63;1.05;;;20.80;57.00;;;;;;5020936;28;20078;-67
2023/11/07 08:34:42;;;;;;;2.92;1.15;;;20.80;57.00;;;;;;5022437;28;20017;-66
2023/11/07 08:37:10;;;;;;;2.63;1.20;;;20.70;56.90;;;;;;5023193;28;20044;-66
2023/11/07 08:39:36;;;;;;;3.72;1.20;;;20.70;57.00;;;;;;5019952;28;20261;-67
2023/11/07 08:42:04;;;;;;;2.38;1.20;;;20.70;56.90;;;;;;5020758;28;20032;-66
2023/11/07 08:44:30;;;;;;;2.50;1.10;;;20.70;57.00;;;;;;5020116;28;20122;-69
2023/11/07 08:46:55;;;;;;;2.53;1.20;;;20.70;57.00;;;;;;5019360;28;20509;-69
2023/11/07 08:49:21;;;;;;;2.47;1.20;;;20.70;57.00;;;;;;5017541;28;20145;-69
2023/11/07 08:51:51;;;;;;;2.63;1.20;;;20.70;57.00;;;;;;5020474;28;20030;-69
2023/11/07 08:54:21;;;;;;;2.50;1.27;;;20.70;57.00;;;;;;5021759;28;20022;-69
2023/11/07 08:56:49;;;;;;;2.60;1.20;;;20.70;57.50;;;;;;5016751;28;20033;-69
2023/11/07 08:59:15;;;;;;;2.40;1.17;;;20.70;57.00;;;;;;5020213;28;20079;-69
2023/11/07 09:01:41;;;;;;;1.42;0.95;;;20.70;57.00;;;;;;5019290;28;20025;-69
2023/11/07 09:04:09;;;;;;;2.90;1.35;;;20.70;57.00;;;;;;5021547;28;20047;-69
2023/11/07 09:06:39;;;;;;;2.53;1.20;;;20.70;57.00;;;;;;5020240;28;20120;-69
2023/11/07 09:09:07;;;;;;;2.58;1.30;;;20.70;57.00;;;;;;5020072;28;20468;-68
2023/11/07 09:11:33;;;;;;;2.92;1.45;;;20.70;57.00;;;;;;5016937;28;20022;-69
2023/11/07 09:13:59;;;;;;;3.60;1.40;;;20.70;57.00;;;;;;5020700;28;20038;-69
2023/11/07 09:16:25;;;;;;;2.45;1.23;;;20.70;56.90;;;;;;5018812;28;20033;-69
2023/11/07 09:18:51;;;;;;;2.92;1.20;;;20.70;56.90;;;;;;5019694;28;20507;-68
2023/11/07 09:21:16;;;;;;;2.45;1.08;;;20.70;57.00;;;;;;5020138;28;20053;-69
2023/11/07 09:23:42;;;;;;;2.40;1.10;;;20.70;57.00;;;;;;5020991;28;20030;-68
2023/11/07 09:26:09;;;;;;;2.67;1.40;;;20.70;57.00;;;;;;5018547;28;20124;-69
2023/11/07 09:28:34;;;;;;;2.17;1.13;;;20.70;57.00;;;;;;5021502;28;20103;-69
2023/11/07 09:31:01;;;;;;;2.72;1.10;;;20.70;57.00;;;;;;5035199;28;20439;-68
2023/11/07 09:33:27;;;;;;;2.70;1.20;;;20.70;57.00;;;;;;5020603;28;20231;-69
2023/11/07 09:35:53;;;;;;;2.60;1.10;;;20.70;57.00;;;;;;5035939;28;20154;-68
2023/11/07 09:38:19;;;;;;;2.60;1.20;;;20.70;57.00;;;;;;5020952;28;20036;-68
2023/11/07 09:40:44;;;;;;;2.40;1.20;;;20.70;57.00;;;;;;5018500;28;20018;-68
2023/11/07 09:43:12;;;;;;;2.13;1.25;;;20.70;57.00;;;;;;5016819;28;20026;-69
2023/11/07 09:45:39;;;;;;;2.50;1.25;;;20.70;57.00;;;;;;5017188;28;20360;-69
2023/11/07 09:48:09;;;;;;;2.72;1.30;;;20.70;57.00;;;;;;5020191;28;20393;-69
2023/11/07 09:50:39;;;;;;;3.25;1.20;;;20.70;57.50;;;;;;5019949;28;20029;-68
2023/11/07 09:53:12;;;;;;;2.28;1.20;;;20.60;57.00;;;;;;5019369;28;20028;-69
2023/11/07 09:55:39;;;;;;;3.08;1.58;;;20.70;57.10;;;;;;5018252;28;20034;-69
2023/11/07 09:58:19;;;;;;;3.10;1.40;;;20.60;57.00;;;;;;5018659;28;20037;-68
2023/11/07 10:00:44;;;;;;;3.28;1.38;;;20.60;57.00;;;;;;5018723;28;20057;-68
2023/11/07 10:03:11;;;;;;;2.33;1.20;;;20.70;57.10;;;;;;5018974;28;20422;-68
2023/11/07 10:05:39;;;;;;;2.85;1.30;;;20.60;57.00;;;;;;5018541;28;20037;-68
2023/11/07 10:08:06;;;;;;;2.80;1.38;;;20.60;57.00;;;;;;5019492;28;20026;-68
2023/11/07 10:10:32;;;;;;;2.72;1.20;;;20.60;57.00;;;;;;5018983;28;20053;-68
2023/11/07 10:13:08;;;;;;;3.17;1.23;;;20.60;57.00;;;;;;5016459;28;20126;-68
2023/11/07 10:15:34;;;;;;;3.05;1.35;;;20.60;57.00;;;;;;5020923;28;20045;-68
2023/11/07 10:18:00;;;;;;;2.55;1.33;;;20.60;57.00;;;;;;5017644;28;20377;-68
2023/11/07 10:20:28;;;;;;;2.92;1.45;;;20.60;57.00;;;;;;5019400;28;20047;-68
2023/11/07 10:22:54;;;;;;;2.65;1.30;;;20.60;57.00;;;;;;5020439;28;20026;-68
2023/11/07 10:25:25;;;;;;;2.60;1.40;;;20.60;57.00;;;;;;5020758;28;20041;-69
2023/11/07 10:27:58;;;;;;;2.30;1.25;;;20.60;57.10;;;;;;5017837;28;20033;-69
2023/11/07 10:30:34;;;;;;;3.08;1.40;;;20.60;57.10;;;;;;5018983;28;20088;-69
2023/11/07 10:32:59;;;;;;;2.17;1.20;;;20.60;57.10;;;;;;5017140;28;20092;-68
2023/11/07 10:35:25;;;;;;;2.55;1.50;;;20.60;57.10;;;;;;5016035;28;20018;-69
2023/11/07 10:37:51;;;;;;;2.65;1.20;;;20.60;57.10;;;;;;5019087;28;20048;-69
2023/11/07 10:40:17;;;;;;;2.90;1.50;;;20.60;57.10;;;;;;5020316;28;20017;-69
2023/11/07 10:42:47;;;;;;;2.75;1.30;;;20.60;57.10;;;;;;5030814;28;20091;-69
2023/11/07 10:45:15;;;;;;;2.72;1.30;;;20.60;57.10;;;;;;5018508;28;20033;-69
2023/11/07 10:47:43;;;;;;;2.92;1.40;;;20.60;57.10;;;;;;5018830;28;20099;-69
2023/11/07 10:50:13;;;;;;;2.45;1.30;;;20.60;57.10;;;;;;5018969;28;20025;-68
2023/11/07 10:52:39;;;;;;;2.97;1.20;;;20.60;57.10;;;;;;5033201;28;20030;-69
2023/11/07 10:55:06;;;;;;;3.50;1.42;;;20.60;57.10;;;;;;5017548;28;20018;-67
2023/11/07 10:57:34;;;;;;;2.70;1.40;;;20.60;57.10;;;;;;5017447;28;20034;-66
2023/11/07 11:00:12;;;;;;;2.47;1.27;;;20.60;57.10;;;;;;5018353;28;20033;-67
2023/11/07 11:02:47;;;;;;;3.10;1.38;;;20.60;57.10;;;;;;5018926;28;20030;-66
2023/11/07 11:05:15;;;;;;;3.03;1.50;;;20.60;57.10;;;;;;5016904;28;20080;-70
2023/11/07 11:07:48;;;;;;;2.78;1.42;;;20.60;57.10;;;;;;5018518;28;20026;-70
2023/11/07 11:10:15;;;;;;;2.22;1.10;;;20.60;57.10;;;;;;5019101;28;20029;-70
2023/11/07 11:12:43;;;;;;;2.88;1.35;;;20.60;57.70;;;;;;5017477;28;20127;-70
2023/11/07 11:15:10;;;;;;;2.75;1.30;;;20.60;57.10;;;;;;5018785;28;20076;-70
2023/11/07 11:17:47;;;;;;;2.25;1.20;;;20.60;57.10;;;;;;5017622;28;20037;-70
2023/11/07 11:20:23;;;;;;;2.50;1.30;;;20.60;57.10;;;;;;5018441;28;20029;-70
2023/11/07 11:23:13;;;;;;;2.10;1.27;;;20.60;57.10;;;;;;5016730;28;20033;-70
2023/11/07 11:25:48;;;;;;;2.20;1.20;;;20.60;57.10;;;;;;5017855;28;20050;-70
2023/11/07 11:28:14;;;;;;;2.42;1.30;;;20.60;57.10;;;;;;5015210;28;20061;-70
2023/11/07 11:30:40;;;;;;;2.63;1.30;;;20.60;57.10;;;;;;5020237;28;20055;-70
2023/11/07 11:33:11;;;;;;;2.30;1.30;;;20.60;57.00;;;;;;5019051;28;20528;-70
2023/11/07 11:35:43;;;;;;;3.35;1.20;;;20.50;57.00;;;;;;5017341;28;20018;-70
2023/11/07 11:38:13;;;;;;;2.08;1.10;;;20.60;57.00;;;;;;5019780;28;20040;-70
2023/11/07 11:40:51;;;;;;;2.00;1.02;;;20.50;57.00;;;;;;5017621;28;20076;-70
2023/11/07 11:43:18;;;;;;;2.95;1.20;;;20.60;57.00;;;;;;5015757;28;20481;-70
2023/11/07 11:45:45;;;;;;;2.28;1.33;;;20.50;57.00;;;;;;5018022;28;20532;-69
2023/11/07 11:48:10;;;;;;;2.47;1.45;;;20.60;57.10;;;;;;5019462;28;20014;-70
2023/11/07 11:50:37;;;;;;;3.22;1.33;;;20.60;57.00;;;;;;5010373;28;20068;-70
2023/11/07 11:53:05;;;;;;;2.05;1.20;;;20.60;57.00;;;;;;5018899;28;20018;-70
2023/11/07 11:56:10;;;;;;;2.70;1.35;;;20.60;57.00;;;;;;5033273;28;20042;-70
2023/11/07 11:58:37;;;;;;;2.88;1.50;;;20.60;57.00;;;;;;5015533;28;20032;-69
2023/11/07 12:01:05;;;;;;;3.53;1.42;;;20.60;57.00;;;;;;5032634;28;20081;-70
2023/11/07 12:03:46;;;;;;;2.35;1.17;;;20.60;57.00;;;;;;5021930;28;20044;-70
2023/11/07 12:06:13;;;;;;;1.95;1.20;;;20.60;57.00;;;;;;5020423;28;20026;-67
2023/11/07 12:08:44;;;;;;;2.60;1.40;;;20.60;57.00;;;;;;5022908;28;20026;-67
2023/11/07 12:11:10;;;;;;;2.30;1.20;;;20.50;57.00;;;;;;5021793;28;20056;-66
2023/11/07 12:13:36;;;;;;;2.20;1.30;;;20.50;57.00;;;;;;5018873;28;20493;-68
2023/11/07 12:16:13;;;;;;;2.42;1.30;;;20.50;57.00;;;;;;5019973;28;20374;-68
2023/11/07 12:18:44;;;;;;;2.88;1.40;;;20.60;57.10;;;;;;5021231;28;20034;-68
2023/11/07 12:21:10;;;;;;;2.60;1.40;;;20.50;57.00;;;;;;5020947;28;20018;-68
2023/11/07 12:23:36;;;;;;;2.45;1.50;;;20.50;57.00;;;;;;5016755;28;20106;-68
2023/11/07 12:26:03;;;;;;;1.75;1.02;;;20.50;57.00;;;;;;5020529;28;20029;-68
2023/11/07 12:28:28;;;;;;;2.13;1.30;;;20.50;57.00;;;;;;5016846;28;20071;-69
2023/11/07 12:30:55;;;;;;;1.50;1.02;;;20.50;57.00;;;;;;5018450;28;20084;-69
2023/11/07 12:33:21;;;;;;;2.40;1.30;;;20.50;57.00;;;;;;5020998;28;20454;-68
2023/11/07 12:35:54;;;;;;;1.92;1.17;;;20.50;57.50;;;;;;5021660;28;20425;-68
2023/11/07 12:38:21;;;;;;;2.00;1.20;;;20.50;57.00;;;;;;5020600;28;20086;-68
2023/11/07 12:40:47;;;;;;;1.50;1.00;;;20.60;57.00;;;;;;5023780;28;20104;-68
2023/11/07 12:43:15;;;;;;;2.33;1.10;;;20.50;57.00;;;;;;5020883;28;20014;-68
2023/11/07 12:45:42;;;;;;;1.90;1.27;;;20.50;57.40;;;;;;5019179;28;20308;-68
2023/11/07 12:48:13;;;;;;;2.17;1.40;;;20.50;57.00;;;;;;5021449;28;20109;-68